sensor_id;sensor_type;location;lat;lon;timestamp;P1;durP1;ratioP1;P2;durP2;ratioP2
295;SDS011;132;48.770;9.200;2023-11-21T00:01:17;9.15;;;3.20;;
295;SDS011;132;48.770;9.200;2023-11-21T00:03:46;7.55;;;2.90;;
295;SDS011;132;48.770;9.200;2023-11-21T00:06:36;10.05;;;2.60;;
295;SDS011;132;48.770;9.200;2023-11-21T00:09:23;6.43;;;3.00;;
295;SDS011;132;48.770;9.200;2023-11-21T00:12:11;7.90;;;2.72;;
295;SDS011;132;48.770;9.200;2023-11-21T00:19:01;7.90;;;2.65;;
295;SDS011;132;48.770;9.200;2023-11-21T00:25:51;8.07;;;2.80;;
295;SDS011;132;48.770;9.200;2023-11-21T00:32:59;7.70;;;2.88;;
295;SDS011;132;48.770;9.200;2023-11-21T00:35:35;8.70;;;2.97;;
295;SDS011;132;48.770;9.200;2023-11-21T00:42:27;7.68;;;3.00;;
295;SDS011;132;48.770;9.200;2023-11-21T00:44:53;8.02;;;2.90;;
295;SDS011;132;48.770;9.200;2023-11-21T00:50:21;7.68;;;2.85;;
295;SDS011;132;48.770;9.200;2023-11-21T00:52:47;10.63;;;3.15;;
295;SDS011;132;48.770;9.200;2023-11-21T00:55:14;6.43;;;2.83;;
295;SDS011;132;48.770;9.200;2023-11-21T01:02:04;8.25;;;2.70;;
295;SDS011;132;48.770;9.200;2023-11-21T01:04:31;10.00;;;3.10;;
295;SDS011;132;48.770;9.200;2023-11-21T01:06:58;9.13;;;3.05;;
295;SDS011;132;48.770;9.200;2023-11-21T01:09:25;7.65;;;2.92;;
295;SDS011;132;48.770;9.200;2023-11-21T01:11:51;6.93;;;3.00;;
295;SDS011;132;48.770;9.200;2023-11-21T01:14:19;4.97;;;2.40;;
295;SDS011;132;48.770;9.200;2023-11-21T01:25:21;10.68;;;3.00;;
295;SDS011;132;48.770;9.200;2023-11-21T01:27:53;10.35;;;2.80;;
295;SDS011;132;48.770;9.200;2023-11-21T01:30:40;8.23;;;2.78;;
295;SDS011;132;48.770;9.200;2023-11-21T01:48:03;11.15;;;2.50;;
295;SDS011;132;48.770;9.200;2023-11-21T01:50:52;13.75;;;2.80;;
295;SDS011;132;48.770;9.200;2023-11-21T01:53:39;3.60;;;2.05;;
295;SDS011;132;48.770;9.200;2023-11-21T02:11:37;4.90;;;2.00;;
295;SDS011;132;48.770;9.200;2023-11-21T02:26:23;6.95;;;2.40;;
295;SDS011;132;48.770;9.200;2023-11-21T02:33:23;3.97;;;1.90;;
295;SDS011;132;48.770;9.200;2023-11-21T02:40:33;7.93;;;2.45;;
295;SDS011;132;48.770;9.200;2023-11-21T02:47:15;4.18;;;1.95;;
295;SDS011;132;48.770;9.200;2023-11-21T02:50:02;3.65;;;1.88;;
295;SDS011;132;48.770;9.200;2023-11-21T02:52:34;6.28;;;2.05;;
295;SDS011;132;48.770;9.200;2023-11-21T02:55:02;4.25;;;2.03;;
295;SDS011;132;48.770;9.200;2023-11-21T02:57:29;4.35;;;1.95;;
295;SDS011;132;48.770;9.200;2023-11-21T03:23:40;3.45;;;1.90;;
295;SDS011;132;48.770;9.200;2023-11-21T03:26:17;3.13;;;1.67;;
295;SDS011;132;48.770;9.200;2023-11-21T03:29:04;3.40;;;1.83;;
295;SDS011;132;48.770;9.200;2023-11-21T03:51:18;4.80;;;1.80;;
295;SDS011;132;48.770;9.200;2023-11-21T03:54:10;5.32;;;1.60;;
295;SDS011;132;48.770;9.200;2023-11-21T04:09:14;3.00;;;1.80;;
295;SDS011;132;48.770;9.200;2023-11-21T04:16:13;2.30;;;1.70;;
295;SDS011;132;48.770;9.200;2023-11-21T04:18:39;3.55;;;1.60;;
295;SDS011;132;48.770;9.200;2023-11-21T04:21:06;2.58;;;1.63;;
295;SDS011;132;48.770;9.200;2023-11-21T04:23:33;4.10;;;1.60;;
295;SDS011;132;48.770;9.200;2023-11-21T04:33:48;3.60;;;1.80;;
295;SDS011;132;48.770;9.200;2023-11-21T04:36:14;4.05;;;1.70;;
295;SDS011;132;48.770;9.200;2023-11-21T04:38:41;3.90;;;1.77;;
295;SDS011;132;48.770;9.200;2023-11-21T04:41:09;3.85;;;1.90;;
295;SDS011;132;48.770;9.200;2023-11-21T04:43:54;2.47;;;1.60;;
295;SDS011;132;48.770;9.200;2023-11-21T04:54:03;3.70;;;1.80;;
295;SDS011;132;48.770;9.200;2023-11-21T04:56:35;3.45;;;1.90;;
295;SDS011;132;48.770;9.200;2023-11-21T04:59:02;4.80;;;1.83;;
295;SDS011;132;48.770;9.200;2023-11-21T05:01:29;3.88;;;1.70;;
295;SDS011;132;48.770;9.200;2023-11-21T05:04:14;2.60;;;1.80;;
295;SDS011;132;48.770;9.200;2023-11-21T05:06:47;3.28;;;1.60;;
295;SDS011;132;48.770;9.200;2023-11-21T05:09:13;5.53;;;1.70;;
295;SDS011;132;48.770;9.200;2023-11-21T05:11:41;3.05;;;1.73;;
295;SDS011;132;48.770;9.200;2023-11-21T05:14:14;2.72;;;1.50;;
295;SDS011;132;48.770;9.200;2023-11-21T05:16:40;2.85;;;1.65;;
295;SDS011;132;48.770;9.200;2023-11-21T05:19:06;3.22;;;1.70;;
295;SDS011;132;48.770;9.200;2023-11-21T05:21:39;1.88;;;1.50;;
295;SDS011;132;48.770;9.200;2023-11-21T05:24:06;3.30;;;1.50;;
295;SDS011;132;48.770;9.200;2023-11-21T05:26:32;1.77;;;1.70;;
295;SDS011;132;48.770;9.200;2023-11-21T05:29:03;3.40;;;1.85;;
295;SDS011;132;48.770;9.200;2023-11-21T05:31:29;2.63;;;1.80;;
295;SDS011;132;48.770;9.200;2023-11-21T05:33:56;5.95;;;1.77;;
295;SDS011;132;48.770;9.200;2023-11-21T05:36:32;2.05;;;1.70;;
295;SDS011;132;48.770;9.200;2023-11-21T05:50:57;5.75;;;2.63;;
295;SDS011;132;48.770;9.200;2023-11-21T05:53:24;5.10;;;1.83;;
295;SDS011;132;48.770;9.200;2023-11-21T05:55:51;2.65;;;1.90;;
295;SDS011;132;48.770;9.200;2023-11-21T05:58:17;2.35;;;1.70;;
295;SDS011;132;48.770;9.200;2023-11-21T06:01:13;2.85;;;1.70;;
295;SDS011;132;48.770;9.200;2023-11-21T06:11:46;4.30;;;1.90;;
295;SDS011;132;48.770;9.200;2023-11-21T06:14:37;4.75;;;1.90;;
295;SDS011;132;48.770;9.200;2023-11-21T06:17:24;3.40;;;1.63;;
295;SDS011;132;48.770;9.200;2023-11-21T06:24:22;4.68;;;2.05;;
295;SDS011;132;48.770;9.200;2023-11-21T06:34:17;4.70;;;2.10;;
295;SDS011;132;48.770;9.200;2023-11-21T06:36:43;1.95;;;1.90;;
295;SDS011;132;48.770;9.200;2023-11-21T06:39:26;6.95;;;2.08;;
295;SDS011;132;48.770;9.200;2023-11-21T07:02:01;2.35;;;1.85;;
295;SDS011;132;48.770;9.200;2023-11-21T07:09:08;2.00;;;1.80;;
295;SDS011;132;48.770;9.200;2023-11-21T07:16:15;3.50;;;1.90;;
295;SDS011;132;48.770;9.200;2023-11-21T07:19:02;2.00;;;1.75;;
295;SDS011;132;48.770;9.200;2023-11-21T07:26:28;4.38;;;2.10;;
295;SDS011;132;48.770;9.200;2023-11-21T07:37:16;3.25;;;1.92;;
295;SDS011;132;48.770;9.200;2023-11-21T07:51:34;2.78;;;2.00;;
295;SDS011;132;48.770;9.200;2023-11-21T08:01:25;2.75;;;2.00;;
295;SDS011;132;48.770;9.200;2023-11-21T08:04:09;3.13;;;2.30;;
295;SDS011;132;48.770;9.200;2023-11-21T08:06:36;6.85;;;2.60;;
295;SDS011;132;48.770;9.200;2023-11-21T08:09:02;2.67;;;2.22;;
295;SDS011;132;48.770;9.200;2023-11-21T08:11:38;2.47;;;1.95;;
295;SDS011;132;48.770;9.200;2023-11-21T08:14:05;4.63;;;2.05;;
295;SDS011;132;48.770;9.200;2023-11-21T08:16:31;2.20;;;2.00;;
295;SDS011;132;48.770;9.200;2023-11-21T08:19:00;4.68;;;2.67;;
295;SDS011;132;48.770;9.200;2023-11-21T08:21:28;5.60;;;2.90;;
295;SDS011;132;48.770;9.200;2023-11-21T08:28:13;4.72;;;2.70;;
295;SDS011;132;48.770;9.200;2023-11-21T08:30:42;12.57;;;5.30;;
295;SDS011;132;48.770;9.200;2023-11-21T08:33:08;15.07;;;5.80;;
295;SDS011;132;48.770;9.200;2023-11-21T08:35:36;10.30;;;4.20;;
295;SDS011;132;48.770;9.200;2023-11-21T08:38:03;6.38;;;3.45;;
295;SDS011;132;48.770;9.200;2023-11-21T08:40:30;8.02;;;4.00;;
295;SDS011;132;48.770;9.200;2023-11-21T08:42:58;9.13;;;3.70;;
295;SDS011;132;48.770;9.200;2023-11-21T08:45:24;7.60;;;3.45;;
295;SDS011;132;48.770;9.200;2023-11-21T08:47:54;5.63;;;2.95;;
295;SDS011;132;48.770;9.200;2023-11-21T08:50:20;3.88;;;2.70;;
295;SDS011;132;48.770;9.200;2023-11-21T08:52:49;4.75;;;2.70;;
295;SDS011;132;48.770;9.200;2023-11-21T08:55:15;2.78;;;2.10;;
295;SDS011;132;48.770;9.200;2023-11-21T08:57:43;3.75;;;2.25;;
295;SDS011;132;48.770;9.200;2023-11-21T09:00:12;3.38;;;2.20;;
295;SDS011;132;48.770;9.200;2023-11-21T09:02:43;6.05;;;2.20;;
295;SDS011;132;48.770;9.200;2023-11-21T09:05:13;3.85;;;2.40;;
295;SDS011;132;48.770;9.200;2023-11-21T09:07:41;3.17;;;2.30;;
295;SDS011;132;48.770;9.200;2023-11-21T09:10:09;3.30;;;2.43;;
295;SDS011;132;48.770;9.200;2023-11-21T09:16:56;4.80;;;2.60;;
295;SDS011;132;48.770;9.200;2023-11-21T09:23:39;3.13;;;2.40;;
295;SDS011;132;48.770;9.200;2023-11-21T09:26:07;2.90;;;2.40;;
295;SDS011;132;48.770;9.200;2023-11-21T09:28:33;3.30;;;2.33;;
295;SDS011;132;48.770;9.200;2023-11-21T09:31:00;4.30;;;2.40;;
295;SDS011;132;48.770;9.200;2023-11-21T09:33:29;4.17;;;2.30;;
295;SDS011;132;48.770;9.200;2023-11-21T09:35:56;2.47;;;2.00;;
295;SDS011;132;48.770;9.200;2023-11-21T09:38:23;2.10;;;1.93;;
295;SDS011;132;48.770;9.200;2023-11-21T09:40:49;3.30;;;2.17;;
295;SDS011;132;48.770;9.200;2023-11-21T09:43:17;3.03;;;2.00;;
295;SDS011;132;48.770;9.200;2023-11-21T09:45:48;2.53;;;1.80;;
295;SDS011;132;48.770;9.200;2023-11-21T09:49:38;3.23;;;2.10;;
295;SDS011;132;48.770;9.200;2023-11-21T09:52:05;2.60;;;2.13;;
295;SDS011;132;48.770;9.200;2023-11-21T09:54:34;8.33;;;4.60;;
295;SDS011;132;48.770;9.200;2023-11-21T10:05:02;2.53;;;2.00;;
295;SDS011;132;48.770;9.200;2023-11-21T10:07:29;2.47;;;1.90;;
295;SDS011;132;48.770;9.200;2023-11-21T10:09:57;2.17;;;2.00;;
295;SDS011;132;48.770;9.200;2023-11-21T10:12:39;3.30;;;2.03;;
295;SDS011;132;48.770;9.200;2023-11-21T10:18:32;6.77;;;2.00;;
295;SDS011;132;48.770;9.200;2023-11-21T10:21:18;6.65;;;2.22;;
295;SDS011;132;48.770;9.200;2023-11-21T10:28:07;4.00;;;2.03;;
295;SDS011;132;48.770;9.200;2023-11-21T10:30:39;5.23;;;1.87;;
295;SDS011;132;48.770;9.200;2023-11-21T10:33:06;2.90;;;2.00;;
295;SDS011;132;48.770;9.200;2023-11-21T10:35:46;3.40;;;2.30;;
295;SDS011;132;48.770;9.200;2023-11-21T10:42:35;2.55;;;1.90;;
295;SDS011;132;48.770;9.200;2023-11-21T10:45:05;2.63;;;1.60;;
295;SDS011;132;48.770;9.200;2023-11-21T10:47:40;1.97;;;1.60;;
295;SDS011;132;48.770;9.200;2023-11-21T10:50:08;3.08;;;1.88;;
295;SDS011;132;48.770;9.200;2023-11-21T10:52:39;2.28;;;1.80;;
295;SDS011;132;48.770;9.200;2023-11-21T10:55:19;1.65;;;1.55;;
295;SDS011;132;48.770;9.200;2023-11-21T10:57:48;1.63;;;1.30;;
295;SDS011;132;48.770;9.200;2023-11-21T11:00:18;1.30;;;1.30;;
295;SDS011;132;48.770;9.200;2023-11-21T11:02:51;1.60;;;1.50;;
295;SDS011;132;48.770;9.200;2023-11-21T11:05:22;1.90;;;1.50;;
295;SDS011;132;48.770;9.200;2023-11-21T11:07:50;4.30;;;1.70;;
295;SDS011;132;48.770;9.200;2023-11-21T11:11:02;2.05;;;1.60;;
295;SDS011;132;48.770;9.200;2023-11-21T11:13:32;2.00;;;1.57;;
295;SDS011;132;48.770;9.200;2023-11-21T11:16:00;2.83;;;2.30;;
295;SDS011;132;48.770;9.200;2023-11-21T11:35:19;1.90;;;1.60;;
295;SDS011;132;48.770;9.200;2023-11-21T11:49:29;2.10;;;1.93;;
295;SDS011;132;48.770;9.200;2023-11-21T11:55:21;3.60;;;2.10;;
295;SDS011;132;48.770;9.200;2023-11-21T11:58:05;3.80;;;2.43;;
295;SDS011;132;48.770;9.200;2023-11-21T12:00:45;3.07;;;2.13;;
295;SDS011;132;48.770;9.200;2023-11-21T12:03:18;2.33;;;2.17;;
295;SDS011;132;48.770;9.200;2023-11-21T12:06:05;2.30;;;2.10;;
295;SDS011;132;48.770;9.200;2023-11-21T12:08:36;2.37;;;2.23;;
295;SDS011;132;48.770;9.200;2023-11-21T12:11:03;2.63;;;2.30;;
295;SDS011;132;48.770;9.200;2023-11-21T12:13:30;2.30;;;2.10;;
295;SDS011;132;48.770;9.200;2023-11-21T12:23:11;3.10;;;2.70;;
295;SDS011;132;48.770;9.200;2023-11-21T12:25:40;6.90;;;3.17;;
295;SDS011;132;48.770;9.200;2023-11-21T12:28:07;3.87;;;3.10;;
295;SDS011;132;48.770;9.200;2023-11-21T12:30:34;4.67;;;2.40;;
295;SDS011;132;48.770;9.200;2023-11-21T12:33:03;4.60;;;2.30;;
295;SDS011;132;48.770;9.200;2023-11-21T12:35:33;2.40;;;2.20;;
295;SDS011;132;48.770;9.200;2023-11-21T12:38:01;3.63;;;2.50;;
295;SDS011;132;48.770;9.200;2023-11-21T12:40:28;2.90;;;2.40;;
295;SDS011;132;48.770;9.200;2023-11-21T12:42:59;3.17;;;3.00;;
295;SDS011;132;48.770;9.200;2023-11-21T12:45:27;2.73;;;2.20;;
295;SDS011;132;48.770;9.200;2023-11-21T12:47:55;2.53;;;2.40;;
295;SDS011;132;48.770;9.200;2023-11-21T12:50:28;2.30;;;2.10;;
295;SDS011;132;48.770;9.200;2023-11-21T12:52:58;2.13;;;1.97;;
295;SDS011;132;48.770;9.200;2023-11-21T12:55:29;2.30;;;2.10;;
295;SDS011;132;48.770;9.200;2023-11-21T12:58:00;2.43;;;2.10;;
295;SDS011;132;48.770;9.200;2023-11-21T13:00:38;3.23;;;2.27;;
295;SDS011;132;48.770;9.200;2023-11-21T13:03:05;6.53;;;2.20;;
295;SDS011;132;48.770;9.200;2023-11-21T13:05:33;2.90;;;2.50;;
295;SDS011;132;48.770;9.200;2023-11-21T13:08:02;4.53;;;2.27;;
295;SDS011;132;48.770;9.200;2023-11-21T13:10:30;2.40;;;2.10;;
295;SDS011;132;48.770;9.200;2023-11-21T13:12:58;2.37;;;2.20;;
295;SDS011;132;48.770;9.200;2023-11-21T13:15:28;2.50;;;2.23;;
295;SDS011;132;48.770;9.200;2023-11-21T13:17:57;3.50;;;2.57;;
295;SDS011;132;48.770;9.200;2023-11-21T13:20:27;3.43;;;2.80;;
295;SDS011;132;48.770;9.200;2023-11-21T13:22:55;3.90;;;2.90;;
295;SDS011;132;48.770;9.200;2023-11-21T13:25:27;3.37;;;2.80;;
295;SDS011;132;48.770;9.200;2023-11-21T13:27:57;6.70;;;3.17;;
295;SDS011;132;48.770;9.200;2023-11-21T13:30:24;3.17;;;2.50;;
295;SDS011;132;48.770;9.200;2023-11-21T13:33:02;3.20;;;2.30;;
295;SDS011;132;48.770;9.200;2023-11-21T13:35:36;2.47;;;2.30;;
295;SDS011;132;48.770;9.200;2023-11-21T13:38:08;5.90;;;2.60;;
295;SDS011;132;48.770;9.200;2023-11-21T13:40:39;5.20;;;2.15;;
295;SDS011;132;48.770;9.200;2023-11-21T13:43:10;3.33;;;2.47;;
295;SDS011;132;48.770;9.200;2023-11-21T13:45:41;2.43;;;2.20;;
295;SDS011;132;48.770;9.200;2023-11-21T13:48:09;6.10;;;2.55;;
295;SDS011;132;48.770;9.200;2023-11-21T13:50:39;3.88;;;2.85;;
295;SDS011;132;48.770;9.200;2023-11-21T13:53:14;5.88;;;2.60;;
295;SDS011;132;48.770;9.200;2023-11-21T13:55:48;3.90;;;2.65;;
295;SDS011;132;48.770;9.200;2023-11-21T13:58:20;3.80;;;3.05;;
295;SDS011;132;48.770;9.200;2023-11-21T14:01:05;4.50;;;2.92;;
295;SDS011;132;48.770;9.200;2023-11-21T14:03:39;3.75;;;2.58;;
295;SDS011;132;48.770;9.200;2023-11-21T14:06:16;5.43;;;3.22;;
295;SDS011;132;48.770;9.200;2023-11-21T14:08:50;3.85;;;2.95;;
295;SDS011;132;48.770;9.200;2023-11-21T14:11:16;5.20;;;3.40;;
295;SDS011;132;48.770;9.200;2023-11-21T14:13:44;6.32;;;3.75;;
295;SDS011;132;48.770;9.200;2023-11-21T14:16:15;4.85;;;3.65;;
295;SDS011;132;48.770;9.200;2023-11-21T14:18:42;5.15;;;3.80;;
295;SDS011;132;48.770;9.200;2023-11-21T14:21:21;7.35;;;3.80;;
295;SDS011;132;48.770;9.200;2023-11-21T14:23:47;5.88;;;3.75;;
295;SDS011;132;48.770;9.200;2023-11-21T14:26:14;5.00;;;3.08;;
295;SDS011;132;48.770;9.200;2023-11-21T14:28:42;4.97;;;3.08;;
295;SDS011;132;48.770;9.200;2023-11-21T14:31:08;6.15;;;3.40;;
295;SDS011;132;48.770;9.200;2023-11-21T14:33:39;4.07;;;2.97;;
295;SDS011;132;48.770;9.200;2023-11-21T14:36:07;3.50;;;3.00;;
295;SDS011;132;48.770;9.200;2023-11-21T14:38:36;6.53;;;3.93;;
295;SDS011;132;48.770;9.200;2023-11-21T14:45:26;4.57;;;3.40;;
295;SDS011;132;48.770;9.200;2023-11-21T14:47:55;4.90;;;4.03;;
295;SDS011;132;48.770;9.200;2023-11-21T14:50:32;5.80;;;3.50;;
295;SDS011;132;48.770;9.200;2023-11-21T14:53:05;4.95;;;3.92;;
295;SDS011;132;48.770;9.200;2023-11-21T14:55:32;6.60;;;4.85;;
295;SDS011;132;48.770;9.200;2023-11-21T14:58:14;7.10;;;3.83;;
295;SDS011;132;48.770;9.200;2023-11-21T15:00:45;4.10;;;3.60;;
295;SDS011;132;48.770;9.200;2023-11-21T15:03:12;6.75;;;3.70;;
295;SDS011;132;48.770;9.200;2023-11-21T15:06:58;4.60;;;3.22;;
295;SDS011;132;48.770;9.200;2023-11-21T15:09:24;3.70;;;3.25;;
295;SDS011;132;48.770;9.200;2023-11-21T15:13:06;3.88;;;3.25;;
295;SDS011;132;48.770;9.200;2023-11-21T15:19:53;4.10;;;2.90;;
295;SDS011;132;48.770;9.200;2023-11-21T15:22:20;4.35;;;3.45;;
295;SDS011;132;48.770;9.200;2023-11-21T15:24:46;4.30;;;3.20;;
295;SDS011;132;48.770;9.200;2023-11-21T15:27:15;6.93;;;3.50;;
295;SDS011;132;48.770;9.200;2023-11-21T15:29:43;4.78;;;3.60;;
295;SDS011;132;48.770;9.200;2023-11-21T15:32:09;4.70;;;3.80;;
295;SDS011;132;48.770;9.200;2023-11-21T15:34:37;3.63;;;3.00;;
295;SDS011;132;48.770;9.200;2023-11-21T15:37:05;5.00;;;3.45;;
295;SDS011;132;48.770;9.200;2023-11-21T15:39:35;4.68;;;3.55;;
295;SDS011;132;48.770;9.200;2023-11-21T15:42:01;9.38;;;4.10;;
295;SDS011;132;48.770;9.200;2023-11-21T15:44:29;6.40;;;4.50;;
295;SDS011;132;48.770;9.200;2023-11-21T15:54:05;6.93;;;4.72;;
295;SDS011;132;48.770;9.200;2023-11-21T15:56:33;7.25;;;4.65;;
295;SDS011;132;48.770;9.200;2023-11-21T15:59:01;6.65;;;5.00;;
295;SDS011;132;48.770;9.200;2023-11-21T16:04:57;6.93;;;5.05;;
295;SDS011;132;48.770;9.200;2023-11-21T16:07:28;9.70;;;5.82;;
295;SDS011;132;48.770;9.200;2023-11-21T16:09:54;8.38;;;4.93;;
295;SDS011;132;48.770;9.200;2023-11-21T16:12:20;7.85;;;5.30;;
295;SDS011;132;48.770;9.200;2023-11-21T16:14:47;8.40;;;5.90;;
295;SDS011;132;48.770;9.200;2023-11-21T16:17:15;8.35;;;5.68;;
295;SDS011;132;48.770;9.200;2023-11-21T16:19:45;6.82;;;5.25;;
295;SDS011;132;48.770;9.200;2023-11-21T16:22:12;8.75;;;5.95;;
295;SDS011;132;48.770;9.200;2023-11-21T16:24:41;7.00;;;5.53;;
295;SDS011;132;48.770;9.200;2023-11-21T16:27:08;9.20;;;5.68;;
295;SDS011;132;48.770;9.200;2023-11-21T16:29:35;8.23;;;5.50;;
295;SDS011;132;48.770;9.200;2023-11-21T16:32:17;10.13;;;6.05;;
295;SDS011;132;48.770;9.200;2023-11-21T16:34:44;8.82;;;6.10;;
295;SDS011;132;48.770;9.200;2023-11-21T16:37:10;10.63;;;5.82;;
295;SDS011;132;48.770;9.200;2023-11-21T16:39:47;8.93;;;6.55;;
295;SDS011;132;48.770;9.200;2023-11-21T16:42:23;7.85;;;5.43;;
295;SDS011;132;48.770;9.200;2023-11-21T16:49:21;10.60;;;6.60;;
295;SDS011;132;48.770;9.200;2023-11-21T16:55:52;12.05;;;7.32;;
295;SDS011;132;48.770;9.200;2023-11-21T17:02:55;11.52;;;7.20;;
295;SDS011;132;48.770;9.200;2023-11-21T17:05:22;13.02;;;6.72;;
295;SDS011;132;48.770;9.200;2023-11-21T17:07:49;15.07;;;8.15;;
295;SDS011;132;48.770;9.200;2023-11-21T17:10:20;16.40;;;7.25;;
295;SDS011;132;48.770;9.200;2023-11-21T17:12:47;15.18;;;8.35;;
295;SDS011;132;48.770;9.200;2023-11-21T17:15:15;10.65;;;7.28;;
295;SDS011;132;48.770;9.200;2023-11-21T17:29:03;13.65;;;8.73;;
295;SDS011;132;48.770;9.200;2023-11-21T17:34:54;20.25;;;9.45;;
295;SDS011;132;48.770;9.200;2023-11-21T17:37:23;15.00;;;9.20;;
295;SDS011;132;48.770;9.200;2023-11-21T17:39:50;17.00;;;9.77;;
295;SDS011;132;48.770;9.200;2023-11-21T17:42:25;15.98;;;9.43;;
295;SDS011;132;48.770;9.200;2023-11-21T17:53:53;20.85;;;10.35;;
295;SDS011;132;48.770;9.200;2023-11-21T17:56:32;20.92;;;10.45;;
295;SDS011;132;48.770;9.200;2023-11-21T17:58:59;16.50;;;10.35;;
295;SDS011;132;48.770;9.200;2023-11-21T18:01:37;19.05;;;10.40;;
295;SDS011;132;48.770;9.200;2023-11-21T18:08:44;17.77;;;9.75;;
295;SDS011;132;48.770;9.200;2023-11-21T18:53:38;13.60;;;8.15;;
295;SDS011;132;48.770;9.200;2023-11-21T18:56:05;18.02;;;9.85;;
295;SDS011;132;48.770;9.200;2023-11-21T18:58:35;16.65;;;10.05;;
295;SDS011;132;48.770;9.200;2023-11-21T19:01:07;17.85;;;10.23;;
295;SDS011;132;48.770;9.200;2023-11-21T19:03:33;13.52;;;9.07;;
295;SDS011;132;48.770;9.200;2023-11-21T19:06:00;14.18;;;8.95;;
295;SDS011;132;48.770;9.200;2023-11-21T19:08:26;17.92;;;8.88;;
295;SDS011;132;48.770;9.200;2023-11-21T19:10:55;17.42;;;9.88;;
295;SDS011;132;48.770;9.200;2023-11-21T19:13:39;14.30;;;8.88;;
295;SDS011;132;48.770;9.200;2023-11-21T19:16:06;16.25;;;9.10;;
295;SDS011;132;48.770;9.200;2023-11-21T19:18:32;17.48;;;9.60;;
295;SDS011;132;48.770;9.200;2023-11-21T19:20:59;17.42;;;9.75;;
295;SDS011;132;48.770;9.200;2023-11-21T19:23:25;15.77;;;8.50;;
295;SDS011;132;48.770;9.200;2023-11-21T19:25:52;20.63;;;9.23;;
295;SDS011;132;48.770;9.200;2023-11-21T19:28:19;13.50;;;8.05;;
295;SDS011;132;48.770;9.200;2023-11-21T19:30:48;13.52;;;8.25;;
295;SDS011;132;48.770;9.200;2023-11-21T19:33:35;14.27;;;8.63;;
295;SDS011;132;48.770;9.200;2023-11-21T19:36:06;18.95;;;10.07;;
295;SDS011;132;48.770;9.200;2023-11-21T19:38:34;19.55;;;9.35;;
295;SDS011;132;48.770;9.200;2023-11-21T19:41:01;19.58;;;10.50;;
295;SDS011;132;48.770;9.200;2023-11-21T19:43:35;19.70;;;11.88;;
295;SDS011;132;48.770;9.200;2023-11-21T19:46:02;16.65;;;8.88;;
295;SDS011;132;48.770;9.200;2023-11-21T19:48:30;17.27;;;9.57;;
295;SDS011;132;48.770;9.200;2023-11-21T19:51:14;22.33;;;9.75;;
295;SDS011;132;48.770;9.200;2023-11-21T19:58:13;18.23;;;9.75;;
295;SDS011;132;48.770;9.200;2023-11-21T20:04:37;17.65;;;8.63;;
295;SDS011;132;48.770;9.200;2023-11-21T20:07:21;26.35;;;13.55;;
295;SDS011;132;48.770;9.200;2023-11-21T20:09:49;26.25;;;12.63;;
295;SDS011;132;48.770;9.200;2023-11-21T20:12:18;21.35;;;10.18;;
295;SDS011;132;48.770;9.200;2023-11-21T20:15:06;18.88;;;9.95;;
295;SDS011;132;48.770;9.200;2023-11-21T20:22:15;17.83;;;8.43;;
295;SDS011;132;48.770;9.200;2023-11-21T20:25:03;20.08;;;9.63;;
295;SDS011;132;48.770;9.200;2023-11-21T20:31:57;14.55;;;8.43;;
295;SDS011;132;48.770;9.200;2023-11-21T20:34:24;18.48;;;10.27;;
295;SDS011;132;48.770;9.200;2023-11-21T20:36:51;19.75;;;9.98;;
295;SDS011;132;48.770;9.200;2023-11-21T20:54:12;18.58;;;10.00;;
295;SDS011;132;48.770;9.200;2023-11-21T20:56:39;17.42;;;9.35;;
295;SDS011;132;48.770;9.200;2023-11-21T20:59:06;23.02;;;9.98;;
295;SDS011;132;48.770;9.200;2023-11-21T21:01:33;16.48;;;8.93;;
295;SDS011;132;48.770;9.200;2023-11-21T21:19:13;22.77;;;9.90;;
295;SDS011;132;48.770;9.200;2023-11-21T21:22:00;21.65;;;9.80;;
295;SDS011;132;48.770;9.200;2023-11-21T21:24:35;16.90;;;8.60;;
295;SDS011;132;48.770;9.200;2023-11-21T21:27:02;16.25;;;8.40;;
295;SDS011;132;48.770;9.200;2023-11-21T21:29:29;21.20;;;10.50;;
295;SDS011;132;48.770;9.200;2023-11-21T21:32:16;19.92;;;9.27;;
295;SDS011;132;48.770;9.200;2023-11-21T21:34:44;18.63;;;9.90;;
295;SDS011;132;48.770;9.200;2023-11-21T21:37:11;22.25;;;9.63;;
295;SDS011;132;48.770;9.200;2023-11-21T21:43:55;24.80;;;10.48;;
295;SDS011;132;48.770;9.200;2023-11-21T21:46:23;18.83;;;9.43;;
295;SDS011;132;48.770;9.200;2023-11-21T21:48:50;21.95;;;9.95;;
295;SDS011;132;48.770;9.200;2023-11-21T21:51:17;25.80;;;10.77;;
295;SDS011;132;48.770;9.200;2023-11-21T21:53:44;19.33;;;9.82;;
295;SDS011;132;48.770;9.200;2023-11-21T21:56:12;23.05;;;10.48;;
295;SDS011;132;48.770;9.200;2023-11-21T21:58:40;25.38;;;10.30;;
295;SDS011;132;48.770;9.200;2023-11-21T22:01:06;25.85;;;10.15;;
295;SDS011;132;48.770;9.200;2023-11-21T22:03:34;32.60;;;11.52;;
295;SDS011;132;48.770;9.200;2023-11-21T22:06:01;26.90;;;11.65;;
295;SDS011;132;48.770;9.200;2023-11-21T22:08:27;24.63;;;12.40;;
295;SDS011;132;48.770;9.200;2023-11-21T22:10:54;23.67;;;11.30;;
295;SDS011;132;48.770;9.200;2023-11-21T22:13:20;22.02;;;11.43;;
295;SDS011;132;48.770;9.200;2023-11-21T22:15:52;24.20;;;12.18;;
295;SDS011;132;48.770;9.200;2023-11-21T22:18:18;26.30;;;12.20;;
295;SDS011;132;48.770;9.200;2023-11-21T22:20:44;26.92;;;11.52;;
295;SDS011;132;48.770;9.200;2023-11-21T22:23:11;28.33;;;13.00;;
295;SDS011;132;48.770;9.200;2023-11-21T22:30:00;28.25;;;11.82;;
295;SDS011;132;48.770;9.200;2023-11-21T22:36:40;25.15;;;11.60;;
295;SDS011;132;48.770;9.200;2023-11-21T22:39:06;27.73;;;12.23;;
295;SDS011;132;48.770;9.200;2023-11-21T22:41:34;26.40;;;12.25;;
295;SDS011;132;48.770;9.200;2023-11-21T22:44:01;27.95;;;12.27;;
295;SDS011;132;48.770;9.200;2023-11-21T22:46:27;23.17;;;11.43;;
295;SDS011;132;48.770;9.200;2023-11-21T22:48:53;35.15;;;11.93;;
295;SDS011;132;48.770;9.200;2023-11-21T22:51:20;22.23;;;11.23;;
295;SDS011;132;48.770;9.200;2023-11-21T22:53:46;24.25;;;13.20;;
295;SDS011;132;48.770;9.200;2023-11-21T22:56:13;21.77;;;11.05;;
295;SDS011;132;48.770;9.200;2023-11-21T22:58:39;28.02;;;11.75;;
295;SDS011;132;48.770;9.200;2023-11-21T23:01:09;22.23;;;11.00;;
295;SDS011;132;48.770;9.200;2023-11-21T23:03:37;25.58;;;11.60;;
295;SDS011;132;48.770;9.200;2023-11-21T23:06:03;23.27;;;10.80;;
295;SDS011;132;48.770;9.200;2023-11-21T23:08:30;24.75;;;11.38;;
295;SDS011;132;48.770;9.200;2023-11-21T23:10:56;24.55;;;10.65;;
295;SDS011;132;48.770;9.200;2023-11-21T23:13:22;28.95;;;11.10;;
295;SDS011;132;48.770;9.200;2023-11-21T23:15:49;23.15;;;11.15;;
295;SDS011;132;48.770;9.200;2023-11-21T23:18:18;21.65;;;10.50;;
295;SDS011;132;48.770;9.200;2023-11-21T23:20:54;22.63;;;11.75;;
295;SDS011;132;48.770;9.200;2023-11-21T23:23:20;22.83;;;11.20;;
295;SDS011;132;48.770;9.200;2023-11-21T23:26:02;20.92;;;10.30;;
295;SDS011;132;48.770;9.200;2023-11-21T23:28:28;21.10;;;10.75;;
295;SDS011;132;48.770;9.200;2023-11-21T23:30:55;26.98;;;11.70;;
295;SDS011;132;48.770;9.200;2023-11-21T23:33:24;22.02;;;11.65;;
295;SDS011;132;48.770;9.200;2023-11-21T23:39:18;23.65;;;11.52;;
295;SDS011;132;48.770;9.200;2023-11-21T23:41:45;19.10;;;10.00;;
295;SDS011;132;48.770;9.200;2023-11-21T23:47:48;23.83;;;10.68;;
295;SDS011;132;48.770;9.200;2023-11-21T23:50:15;24.27;;;11.32;;
295;SDS011;132;48.770;9.200;2023-11-21T23:56:00;22.67;;;11.20;;
295;SDS011;132;48.770;9.200;2023-11-21T23:58:38;24.13;;;11.43;;
